Time;durP1;ratioP1;P1;durP2;ratioP2;P2;SDS_P1;SDS_P2;PMS_P1;PMS_P2;Temp;Humidity;BMP_temperature;BMP_pressure;BME280_temperature;BME280_humidity;BME280_pressure;Samples;Min_cycle;Max_cycle;Signal;HPM_P1;HPM_P2
2022/07/10 00:00:17;;;;;;;5.50;4.62;;;;;;;14.39;87.70;96697.70;1686971;83;21118;-86
2022/07/10 00:02:45;;;;;;;7.58;4.83;;;;;;;14.44;87.77;96699.73;1702628;83;21087;-85
2022/07/10 00:05:11;;;;;;;6.70;4.40;;;;;;;14.45;87.91;96702.66;1685460;83;21067;-85
2022/07/10 00:07:37;;;;;;;5.37;4.20;;;;;;;14.47;87.90;96698.84;1650286;85;21026;-84
2022/07/10 00:10:04;;;;;;;6.42;4.92;;;;;;;14.46;87.68;96695.11;1655783;86;20941;-87
2022/07/10 00:12:30;;;;;;;5.80;4.65;;;;;;;14.45;87.77;96686.97;1655130;85;20994;-87
2022/07/10 00:14:55;;;;;;;6.58;5.05;;;;;;;14.46;87.79;96688.58;1695159;83;21046;-84
2022/07/10 00:17:21;;;;;;;5.42;4.60;;;;;;;14.44;87.63;96691.39;1697883;82;21374;-84
2022/07/10 00:19:47;;;;;;;8.75;4.75;;;;;;;14.42;87.71;96695.48;1683214;83;20975;-84
2022/07/10 00:22:12;;;;;;;5.70;4.65;;;;;;;14.42;87.83;96690.77;1684836;83;21049;-84
2022/07/10 00:24:38;;;;;;;4.40;3.83;;;;;;;14.41;87.99;96679.50;1688717;83;20992;-87
2022/07/10 00:27:04;;;;;;;7.30;4.45;;;;;;;14.43;88.02;96677.98;1693465;83;21017;-84
2022/07/10 00:29:30;;;;;;;5.05;4.53;;;;;;;14.46;87.96;96678.13;1693743;83;21307;-86
2022/07/10 00:31:56;;;;;;;5.22;4.12;;;;;;;14.46;88.15;96675.51;1698195;83;20991;-85
2022/07/10 00:34:21;;;;;;;4.42;3.58;;;;;;;14.47;88.12;96670.58;1686438;83;21059;-85
2022/07/10 00:36:47;;;;;;;4.55;3.70;;;;;;;14.47;88.07;96669.27;1692176;83;21082;-84
2022/07/10 00:39:16;;;;;;;4.95;3.62;;;;;;;14.48;87.96;96666.48;1693712;83;20979;-84
2022/07/10 00:41:42;;;;;;;6.42;4.55;;;;;;;14.48;87.84;96665.66;1692403;83;21067;-84
2022/07/10 00:44:08;;;;;;;6.12;4.50;;;;;;;14.48;87.77;96660.42;1683004;83;21397;-85
2022/07/10 00:46:35;;;;;;;5.67;4.42;;;;;;;14.51;87.53;96660.05;1689392;83;21079;-85
2022/07/10 00:49:00;;;;;;;5.78;4.83;;;;;;;14.50;87.60;96649.29;1678458;83;21007;-85
2022/07/10 00:51:28;;;;;;;6.55;4.78;;;;;;;14.48;87.71;96646.87;1694017;83;22308;-85
2022/07/10 00:53:54;;;;;;;4.62;4.17;;;;;;;14.46;87.64;96654.09;1681776;83;21023;-85
2022/07/10 00:56:23;;;;;;;5.53;3.72;;;;;;;14.36;87.33;96642.70;1688781;83;20987;-85
2022/07/10 00:58:49;;;;;;;4.05;3.62;;;;;;;14.36;87.33;96642.70;1679116;83;20959;-85
2022/07/10 01:01:15;;;;;;;4.42;3.72;;;;;;;14.38;87.19;96649.03;1685980;83;20992;-85
2022/07/10 01:03:40;;;;;;;3.83;2.87;;;;;;;14.34;87.23;96638.68;1689820;83;21399;-84
2022/07/10 01:06:06;;;;;;;6.35;3.80;;;;;;;14.33;87.40;96643.10;1696345;83;21064;-84
2022/07/10 01:08:35;;;;;;;4.85;3.70;;;;;;;14.33;87.32;96645.72;1714587;84;20998;-85
2022/07/10 01:11:01;;;;;;;4.05;3.62;;;;;;;14.34;87.37;96640.79;1714009;82;20938;-83
2022/07/10 01:13:27;;;;;;;5.55;4.37;;;;;;;14.31;87.37;96637.23;1711530;83;20955;-84
2022/07/10 01:15:52;;;;;;;6.20;3.95;;;;;;;14.29;87.53;96639.25;1712107;82;20999;-84
2022/07/10 01:18:19;;;;;;;5.33;4.17;;;;;;;14.28;87.74;96636.84;1713155;82;21038;-87
2022/07/10 01:20:44;;;;;;;5.22;3.83;;;;;;;14.29;87.90;96629.30;1704187;82;20986;-87
2022/07/10 01:23:10;;;;;;;4.95;4.53;;;;;;;14.28;87.92;96627.19;1702318;82;22082;-84
2022/07/10 01:25:36;;;;;;;5.78;3.67;;;;;;;14.28;88.14;96619.34;1702422;82;21021;-85
2022/07/10 01:28:02;;;;;;;4.37;3.30;;;;;;;14.28;88.17;96614.63;1713947;82;20959;-85
2022/07/10 01:30:27;;;;;;;4.90;3.70;;;;;;;14.28;88.18;96615.42;1715240;82;20973;-84
2022/07/10 01:32:53;;;;;;;4.67;3.52;;;;;;;14.30;88.16;96608.69;1710172;82;20955;-86
2022/07/10 01:35:19;;;;;;;4.65;2.72;;;;;;;14.30;88.20;96611.30;1712409;82;20997;-86
2022/07/10 01:37:45;;;;;;;6.08;3.33;;;;;;;14.33;88.31;96603.09;1710999;82;20998;-83
2022/07/10 01:40:11;;;;;;;3.98;3.02;;;;;;;14.36;88.18;96603.99;1714185;84;20999;-84
2022/07/10 01:42:38;;;;;;;5.22;2.80;;;;;;;14.39;88.21;96600.97;1714039;84;20971;-84
2022/07/10 01:45:08;;;;;;;3.75;3.05;;;;;;;14.43;88.19;96607.41;1701711;82;21002;-87
2022/07/10 01:47:37;;;;;;;5.78;3.22;;;;;;;14.47;88.25;96600.80;1697442;84;21070;-86
2022/07/10 01:50:04;;;;;;;4.45;2.83;;;;;;;14.51;88.20;96603.83;1708615;84;20999;-84
2022/07/10 01:52:30;;;;;;;4.67;3.17;;;;;;;14.56;88.20;96594.87;1708066;82;21006;-85
2022/07/10 01:54:56;;;;;;;5.35;3.87;;;;;;;14.58;88.11;96596.78;1713698;84;21404;-85
2022/07/10 01:57:21;;;;;;;3.83;3.52;;;;;;;14.59;87.49;96595.77;1712298;84;20930;-85
2022/07/10 01:59:47;;;;;;;4.85;3.60;;;;;;;14.60;87.82;96590.84;1712285;84;21464;-85
2022/07/10 02:02:13;;;;;;;6.08;3.08;;;;;;;14.60;87.43;96589.54;1709312;82;20939;-87
2022/07/10 02:04:41;;;;;;;3.85;2.95;;;;;;;14.58;87.57;96586.33;1683930;84;21017;-84
2022/07/10 02:07:18;;;;;;;5.58;3.42;;;;;;;14.59;87.71;96587.93;1703388;84;21035;-84
2022/07/10 02:09:44;;;;;;;3.47;3.12;;;;;;;14.63;87.90;96587.82;1690680;83;21007;-84
2022/07/10 02:12:12;;;;;;;3.67;3.10;;;;;;;14.62;87.21;96587.02;1696645;83;21039;-86
2022/07/10 02:14:39;;;;;;;4.17;3.35;;;;;;;14.65;87.32;96580.61;1680689;83;21497;-85
2022/07/10 02:17:05;;;;;;;6.87;3.92;;;;;;;14.68;86.71;96581.00;1695988;83;20956;-85
2022/07/10 02:19:31;;;;;;;4.30;3.87;;;;;;;14.70;86.60;96583.41;1693150;83;21071;-84
2022/07/10 02:21:56;;;;;;;4.85;3.70;;;;;;;14.67;85.94;96575.47;1681410;83;21476;-84
2022/07/10 02:24:22;;;;;;;6.47;3.83;;;;;;;14.65;85.44;96581.91;1685625;83;21004;-84
2022/07/10 02:26:48;;;;;;;5.08;3.60;;;;;;;14.63;85.24;96586.01;1693690;83;21040;-84
2022/07/10 02:29:14;;;;;;;4.67;3.72;;;;;;;14.65;85.30;96588.45;1662875;84;21436;-85
2022/07/10 02:31:40;;;;;;;7.37;3.62;;;;;;;14.65;85.67;96603.64;1696822;83;21024;-84
2022/07/10 02:34:08;;;;;;;4.00;3.50;;;;;;;14.54;85.74;96606.05;1694685;83;21031;-84
2022/07/10 02:36:34;;;;;;;4.90;2.90;;;;;;;14.40;86.29;96602.58;1695479;83;21003;-83
2022/07/10 02:39:00;;;;;;;3.75;3.35;;;;;;;14.29;86.30;96607.08;1698387;83;20967;-83
2022/07/10 02:41:26;;;;;;;5.65;3.10;;;;;;;14.25;86.89;96600.15;1702135;83;20967;-83
2022/07/10 02:43:52;;;;;;;5.72;3.42;;;;;;;14.23;87.59;96590.40;1694874;83;21385;-84
2022/07/10 02:46:18;;;;;;;4.28;3.10;;;;;;;14.21;87.84;96591.61;1696244;83;20952;-83
2022/07/10 02:48:44;;;;;;;5.53;3.33;;;;;;;14.21;88.16;96594.22;1674665;83;21052;-83
2022/07/10 02:51:09;;;;;;;8.50;3.05;;;;;;;14.18;88.38;96585.48;1694029;83;20987;-83
2022/07/10 02:53:35;;;;;;;6.72;3.62;;;;;;;14.19;88.85;96589.20;1703713;83;20986;-85
2022/07/10 02:56:01;;;;;;;4.45;2.72;;;;;;;14.23;88.78;96579.14;1696419;83;21323;-84
2022/07/10 02:58:27;;;;;;;4.58;3.17;;;;;;;14.23;88.91;96582.56;1689625;83;20940;-84
2022/07/10 03:00:52;;;;;;;4.97;2.95;;;;;;;14.23;88.82;96578.64;1684402;83;20952;-85
2022/07/10 03:03:18;;;;;;;4.03;2.77;;;;;;;14.24;88.96;96576.83;1693478;83;21035;-84
2022/07/10 03:05:45;;;;;;;3.40;3.10;;;;;;;14.22;89.21;96578.84;1676832;83;21162;-85
2022/07/10 03:08:12;;;;;;;3.08;2.75;;;;;;;14.22;89.50;96576.23;1690125;83;21401;-85
2022/07/10 03:10:38;;;;;;;3.15;2.50;;;;;;;14.22;89.61;96575.73;1696410;83;20982;-84
2022/07/10 03:13:04;;;;;;;3.58;2.65;;;;;;;14.24;89.77;96578.14;1705626;83;20972;-83
2022/07/10 03:15:30;;;;;;;4.97;2.90;;;;;;;14.26;89.84;96583.46;1671911;83;21036;-86
2022/07/10 03:17:55;;;;;;;5.15;3.02;;;;;;;14.26;89.74;96580.05;1688352;83;21070;-83
2022/07/10 03:20:21;;;;;;;3.80;2.95;;;;;;;14.27;88.89;96575.12;1690113;83;20976;-85
2022/07/10 03:22:47;;;;;;;4.10;2.92;;;;;;;14.28;89.02;96570.99;1693903;83;20971;-83
2022/07/10 03:25:13;;;;;;;4.83;3.02;;;;;;;14.29;89.39;96566.57;1683060;83;21086;-83
2022/07/10 03:27:40;;;;;;;4.70;3.10;;;;;;;14.28;89.81;96567.58;1685542;83;20952;-85
2022/07/10 03:30:07;;;;;;;4.10;2.90;;;;;;;14.30;90.00;96565.56;1682863;83;21573;-84
2022/07/10 03:32:33;;;;;;;4.75;3.15;;;;;;;14.28;89.77;96565.77;1688994;83;21062;-84
2022/07/10 03:34:59;;;;;;;4.00;2.85;;;;;;;14.31;90.06;96560.63;1644098;85;21070;-85
2022/07/10 03:37:25;;;;;;;4.00;3.20;;;;;;;14.34;90.22;96564.19;1693003;83;21018;-85
2022/07/10 03:39:50;;;;;;;5.12;2.98;;;;;;;14.36;90.22;96562.97;1698720;83;20968;-85
2022/07/10 03:42:16;;;;;;;3.67;2.87;;;;;;;14.38;90.21;96558.34;1659193;85;20995;-84
2022/07/10 03:44:42;;;;;;;3.40;3.02;;;;;;;14.40;90.27;96553.72;1655326;85;21023;-84
2022/07/10 03:47:08;;;;;;;5.40;3.22;;;;;;;14.44;90.49;96553.34;1642433;85;20962;-83
2022/07/10 03:49:34;;;;;;;4.03;2.92;;;;;;;14.47;90.46;96550.31;1678618;83;20932;-84
2022/07/10 03:52:01;;;;;;;4.05;2.87;;;;;;;14.50;90.40;96550.74;1689365;83;21425;-83
2022/07/10 03:54:29;;;;;;;3.22;2.35;;;;;;;14.53;90.49;96543.80;1693215;83;20984;-84
2022/07/10 03:59:40;;;;;;;3.95;3.37;;;;;;;14.51;89.77;96540.58;1689792;83;21377;-85
2022/07/10 04:02:06;;;;;;;3.92;3.27;;;;;;;14.55;90.18;96543.59;1695566;83;20967;-83
2022/07/10 04:04:32;;;;;;;5.05;3.15;;;;;;;14.57;90.24;96541.07;1698666;83;21026;-83
2022/07/10 04:06:58;;;;;;;4.47;2.62;;;;;;;14.55;89.62;96540.47;1684136;83;21070;-83
2022/07/10 04:09:24;;;;;;;5.50;3.15;;;;;;;14.55;89.67;96544.89;1696378;83;21039;-83
2022/07/10 04:11:50;;;;;;;3.67;2.75;;;;;;;14.56;89.89;96544.69;1691483;83;20952;-85
2022/07/10 04:14:15;;;;;;;3.90;3.00;;;;;;;14.58;89.90;96541.37;1673077;83;21023;-83
2022/07/10 04:16:42;;;;;;;3.83;2.67;;;;;;;14.58;89.73;96537.95;1702233;83;21450;-82
2022/07/10 04:19:08;;;;;;;3.92;2.98;;;;;;;14.57;89.50;96530.61;1692756;83;21101;-83
2022/07/10 04:21:34;;;;;;;3.37;2.58;;;;;;;14.60;89.94;96530.70;1629084;85;20987;-83
2022/07/10 04:23:59;;;;;;;3.52;3.17;;;;;;;14.60;89.50;96534.63;1640604;85;20967;-82
2022/07/10 04:26:25;;;;;;;5.33;2.92;;;;;;;14.58;89.50;96534.03;1639949;86;21404;-83
2022/07/10 04:28:51;;;;;;;5.28;4.03;;;;;;;14.65;89.93;96529.11;1645166;85;21063;-83
2022/07/10 04:31:16;;;;;;;5.37;3.47;;;;;;;14.72;90.26;96530.39;1696901;83;21429;-85
2022/07/10 04:33:42;;;;;;;4.25;2.80;;;;;;;14.75;90.02;96529.98;1694030;84;20988;-84
2022/07/10 04:36:08;;;;;;;4.30;2.85;;;;;;;14.75;89.65;96527.87;1649163;87;21165;-84
2022/07/10 04:38:33;;;;;;;2.50;2.30;;;;;;;14.68;88.91;96527.39;1691391;83;22201;-84
2022/07/10 04:40:59;;;;;;;3.77;2.45;;;;;;;14.69;89.37;96525.06;1693975;83;20976;-85
2022/07/10 04:43:25;;;;;;;3.50;2.80;;;;;;;14.67;89.65;96522.36;1697143;83;20994;-84
2022/07/10 04:45:51;;;;;;;4.75;3.10;;;;;;;14.67;89.43;96524.47;1679865;83;21066;-85
2022/07/10 04:48:17;;;;;;;3.40;3.10;;;;;;;14.64;89.33;96522.74;1631775;85;21993;-85
2022/07/10 04:50:43;;;;;;;4.92;3.02;;;;;;;14.47;89.09;96524.97;1669670;84;21425;-85
2022/07/10 04:53:08;;;;;;;3.75;3.35;;;;;;;14.47;89.09;96524.97;1693011;83;21051;-85
2022/07/10 04:55:34;;;;;;;5.50;2.92;;;;;;;14.46;89.55;96526.48;1695881;83;21217;-85
2022/07/10 04:58:00;;;;;;;4.30;3.33;;;;;;;14.45;89.77;96526.98;1631324;85;20963;-85
2022/07/10 05:00:25;;;;;;;7.58;4.35;;;;;;;14.38;89.42;96529.59;1640611;85;20971;-84
2022/07/10 05:02:51;;;;;;;5.60;3.62;;;;;;;14.31;89.45;96531.88;1644870;86;20983;-85
2022/07/10 05:05:17;;;;;;;5.92;4.47;;;;;;;14.29;89.69;96526.06;1643267;85;22136;-83
2022/07/10 05:07:42;;;;;;;5.20;3.83;;;;;;;14.24;89.66;96529.28;1645467;85;21062;-84
2022/07/10 05:10:09;;;;;;;5.28;3.83;;;;;;;14.24;90.08;96525.87;1687102;83;21087;-85
2022/07/10 05:12:35;;;;;;;4.08;3.25;;;;;;;14.30;90.32;96531.59;1680960;83;21020;-84
2022/07/10 05:15:01;;;;;;;5.97;3.70;;;;;;;14.27;89.96;96526.27;1696289;83;21039;-83
2022/07/10 05:17:31;;;;;;;5.92;4.10;;;;;;;14.25;90.13;96529.58;1695159;83;21568;-80
2022/07/10 05:19:57;;;;;;;3.77;3.35;;;;;;;14.26;90.45;96531.69;1684179;83;20989;-81
2022/07/10 05:22:24;;;;;;;5.30;4.10;;;;;;;14.26;90.66;96531.19;1697458;83;21131;-81
2022/07/10 05:24:49;;;;;;;5.15;3.95;;;;;;;14.23;90.28;96524.27;1646996;86;20975;-80
2022/07/10 05:27:19;;;;;;;5.75;4.00;;;;;;;14.22;90.69;96524.77;1636385;86;21049;-81
2022/07/10 05:29:46;;;;;;;5.58;4.05;;;;;;;14.25;91.16;96528.78;1696948;83;21007;-82
2022/07/10 05:32:12;;;;;;;5.17;3.65;;;;;;;14.25;91.10;96530.89;1691058;84;21395;-81
2022/07/10 05:34:38;;;;;;;4.58;3.85;;;;;;;14.30;91.18;96531.59;1685870;83;20990;-82
2022/07/10 05:37:06;;;;;;;4.97;4.00;;;;;;;14.30;90.80;96533.70;1689043;84;21041;-81
2022/07/10 05:39:33;;;;;;;6.15;3.85;;;;;;;14.22;91.06;96539.14;1683402;83;20963;-81
2022/07/10 05:41:58;;;;;;;5.50;4.50;;;;;;;14.16;90.44;96548.29;1682623;82;21003;-81
2022/07/10 05:44:24;;;;;;;5.05;4.05;;;;;;;14.06;90.91;96552.09;1694290;83;21027;-81
2022/07/10 05:46:50;;;;;;;4.83;4.33;;;;;;;14.02;91.24;96542.23;1687915;83;21040;-81
2022/07/10 05:49:16;;;;;;;4.78;4.37;;;;;;;13.94;91.37;96551.05;1674700;84;21418;-81
2022/07/10 05:51:42;;;;;;;5.08;4.58;;;;;;;13.90;91.44;96549.05;1620851;86;20976;-81
2022/07/10 05:54:08;;;;;;;5.65;3.92;;;;;;;13.87;92.45;96552.86;1651654;85;20995;-81
2022/07/10 05:56:34;;;;;;;4.97;4.30;;;;;;;13.85;92.69;96554.06;1694016;83;21027;-81
2022/07/10 05:59:00;;;;;;;4.83;3.47;;;;;;;13.86;92.60;96560.40;1697278;84;21043;-82
2022/07/10 06:01:26;;;;;;;5.05;3.27;;;;;;;13.89;91.70;96565.72;1697269;83;21397;-82
2022/07/10 06:03:52;;;;;;;3.98;3.62;;;;;;;13.92;91.96;96562.70;1684829;84;21342;-82
2022/07/10 06:06:17;;;;;;;3.70;3.40;;;;;;;13.94;92.20;96565.92;1685351;84;21406;-82
2022/07/10 06:08:44;;;;;;;4.72;4.20;;;;;;;13.97;91.52;96565.02;1705772;82;21077;-81
2022/07/10 06:11:10;;;;;;;4.37;3.72;;;;;;;13.97;91.31;96570.24;1690774;82;21357;-81
2022/07/10 06:13:37;;;;;;;3.75;3.45;;;;;;;14.04;91.94;96555.91;1711945;82;21002;-81
2022/07/10 06:16:06;;;;;;;3.02;2.72;;;;;;;14.12;92.59;96561.73;1715308;84;21365;-81
2022/07/10 06:18:32;;;;;;;2.77;2.30;;;;;;;14.22;92.22;96554.81;1708049;82;20971;-82
2022/07/10 06:20:58;;;;;;;5.12;3.15;;;;;;;14.24;90.22;96556.72;1714600;82;21021;-82
2022/07/10 06:23:23;;;;;;;5.10;3.30;;;;;;;14.25;89.80;96563.56;1705687;82;20978;-81
2022/07/10 06:25:49;;;;;;;3.90;2.40;;;;;;;14.33;90.90;96571.22;1717604;82;21034;-80
2022/07/10 06:28:17;;;;;;;2.80;2.45;;;;;;;14.38;89.85;96572.72;1700884;82;20970;-80
2022/07/10 06:30:43;;;;;;;3.15;2.50;;;;;;;14.41;89.55;96564.97;1710004;84;21022;-81
2022/07/10 06:33:09;;;;;;;5.10;2.70;;;;;;;14.48;90.38;96560.59;1710022;82;21471;-80
2022/07/10 06:35:35;;;;;;;2.55;1.80;;;;;;;14.62;90.06;96563.48;1705664;82;21018;-81
2022/07/10 06:38:01;;;;;;;2.85;2.02;;;;;;;14.73;88.01;96562.58;1714378;82;21006;-81
2022/07/10 06:40:29;;;;;;;2.22;2.02;;;;;;;14.71;86.03;96562.78;1711197;82;21038;-80
2022/07/10 06:42:54;;;;;;;4.70;2.95;;;;;;;14.71;88.05;96561.48;1715737;82;21054;-80
2022/07/10 06:45:20;;;;;;;3.98;2.90;;;;;;;14.78;88.68;96557.53;1696500;82;20935;-83
2022/07/10 06:48:01;;;;;;;2.75;2.30;;;;;;;14.84;89.22;96554.92;1706273;82;20987;-82
2022/07/10 06:50:32;;;;;;;2.50;2.12;;;;;;;14.83;88.87;96552.02;1700945;84;21002;-82
2022/07/10 06:52:59;;;;;;;;;;;;;;;14.73;85.96;96558.66;1709935;82;21034;-81
2022/07/10 06:55:25;;;;;;;2.98;1.90;;;;;;;14.65;85.76;96551.84;1711507;82;20077;-81
2022/07/10 06:57:51;;;;;;;4.60;3.60;;;;;;;14.54;86.00;96551.94;1697902;84;21023;-81
2022/07/10 07:00:17;;;;;;;3.55;2.22;;;;;;;14.54;85.45;96552.44;1687065;82;20986;-81
2022/07/10 07:02:42;;;;;;;4.20;2.50;;;;;;;14.55;84.77;96550.13;1688168;82;21393;-81
2022/07/10 07:05:10;;;;;;;3.25;2.50;;;;;;;14.54;84.33;96547.21;1691914;82;21019;-80
2022/07/10 07:07:35;;;;;;;3.45;2.40;;;;;;;14.54;84.58;96544.09;1698397;82;21066;-81
2022/07/10 07:10:03;;;;;;;3.22;2.40;;;;;;;14.58;85.98;96549.21;1633034;85;21418;-81
2022/07/10 07:12:28;;;;;;;3.55;2.10;;;;;;;14.64;86.63;96543.19;1632404;86;21374;-81
2022/07/10 07:14:54;;;;;;;2.15;1.95;;;;;;;14.67;84.92;96553.75;1650209;85;20964;-81
2022/07/10 07:17:25;;;;;;;4.80;2.20;;;;;;;14.70;85.18;96558.06;1649407;85;20987;-81
2022/07/10 07:25:21;;;;;;;3.85;2.50;;;;;;;15.00;83.21;96561.54;1609397;86;21390;-82
2022/07/10 07:27:47;;;;;;;3.27;1.98;;;;;;;14.99;82.64;96561.23;1683786;84;21060;-82
2022/07/10 07:30:14;;;;;;;4.62;2.25;;;;;;;14.99;82.21;96554.70;1679065;84;20975;-82
2022/07/10 07:32:41;;;;;;;3.08;2.00;;;;;;;15.00;82.06;96553.19;1678969;83;21022;-81
2022/07/10 07:35:08;;;;;;;2.35;2.00;;;;;;;15.00;82.27;96555.80;1688510;83;21063;-81
2022/07/10 07:37:40;;;;;;;5.47;2.30;;;;;;;14.99;82.81;96552.89;1681709;83;20987;-82
2022/07/10 07:40:08;;;;;;;3.02;2.45;;;;;;;15.00;83.74;96556.30;1685727;83;21023;-82
2022/07/10 07:42:34;;;;;;;6.00;2.30;;;;;;;15.03;82.83;96563.73;1673345;84;20995;-82
2022/07/10 07:45:01;;;;;;;3.58;2.37;;;;;;;15.08;83.51;96561.81;1618499;85;22651;-82
2022/07/10 07:47:27;;;;;;;2.37;2.00;;;;;;;15.13;82.08;96560.68;1638839;85;21000;-82
2022/07/10 07:49:52;;;;;;;4.37;2.27;;;;;;;15.22;84.00;96560.77;1642449;85;21012;-81
2022/07/10 07:52:18;;;;;;;2.02;1.62;;;;;;;15.29;81.95;96562.37;1651072;85;21004;-82
2022/07/10 07:54:45;;;;;;;3.67;1.77;;;;;;;15.46;80.50;96566.64;1633248;85;21032;-82
2022/07/10 07:57:11;;;;;;;3.85;1.55;;;;;;;15.50;79.73;96566.52;1688858;83;21048;-81
2022/07/10 07:59:37;;;;;;;3.15;1.55;;;;;;;15.54;78.36;96575.55;1686081;83;21311;-81
2022/07/10 08:02:03;;;;;;;2.30;1.60;;;;;;;15.58;78.47;96574.13;1690171;83;20999;-81
2022/07/10 08:04:29;;;;;;;3.08;1.75;;;;;;;15.70;79.23;96574.81;1684249;83;21074;-83
2022/07/10 08:06:55;;;;;;;3.27;1.80;;;;;;;15.86;79.09;96563.84;1675930;83;20991;-82
2022/07/10 08:09:21;;;;;;;4.83;1.40;;;;;;;16.01;79.56;96561.75;1694386;82;21038;-81
2022/07/10 08:11:47;;;;;;;3.35;1.42;;;;;;;16.00;77.16;96558.83;1703286;82;20940;-81
2022/07/10 08:14:14;;;;;;;1.90;1.40;;;;;;;15.88;76.96;96563.13;1689351;82;21374;-83
2022/07/10 08:16:40;;;;;;;4.65;1.72;;;;;;;15.77;74.89;96571.14;1687127;82;21114;-83
2022/07/10 08:19:06;;;;;;;2.45;1.30;;;;;;;15.64;76.72;96577.77;1696120;82;21399;-82
2022/07/10 08:21:32;;;;;;;4.85;1.60;;;;;;;15.59;76.58;96577.57;1689717;82;21022;-82
2022/07/10 08:23:58;;;;;;;3.55;1.52;;;;;;;15.61;77.26;96588.64;1696859;82;20966;-81
2022/07/10 08:26:24;;;;;;;2.20;1.30;;;;;;;15.63;75.99;96584.53;1714299;82;20991;-82
2022/07/10 08:28:50;;;;;;;2.05;1.20;;;;;;;15.70;75.55;96586.60;1698843;82;20998;-82
2022/07/10 08:31:16;;;;;;;3.15;1.30;;;;;;;15.75;75.24;96584.16;1687470;82;21483;-82
2022/07/10 08:33:42;;;;;;;2.62;1.70;;;;;;;15.78;75.98;96581.11;1706668;82;21066;-82
2022/07/10 08:36:08;;;;;;;3.30;1.52;;;;;;;15.87;74.74;96584.59;1684925;84;20951;-81
2022/07/10 08:38:33;;;;;;;4.03;2.27;;;;;;;15.89;74.66;96584.39;1670570;85;21488;-83
2022/07/10 08:40:59;;;;;;;2.25;1.30;;;;;;;15.82;73.37;96586.25;1629815;85;21036;-85
2022/07/10 08:43:25;;;;;;;5.35;1.45;;;;;;;15.79;74.04;96589.30;1660099;84;21005;-82
2022/07/10 08:45:53;;;;;;;2.77;1.60;;;;;;;15.77;73.41;96590.78;1700505;82;20939;-83
2022/07/10 08:48:21;;;;;;;5.85;1.55;;;;;;;15.75;73.09;96584.95;1709666;82;21460;-83
2022/07/10 08:50:47;;;;;;;4.53;1.80;;;;;;;15.77;73.36;96585.55;1715419;82;21033;-82
2022/07/10 08:53:16;;;;;;;3.27;1.40;;;;;;;15.92;73.98;96587.89;1707575;82;21377;-87
2022/07/10 08:55:43;;;;;;;4.00;1.60;;;;;;;16.20;72.55;96580.98;1699280;82;21011;-85
2022/07/10 08:58:09;;;;;;;2.83;1.00;;;;;;;16.54;71.22;96577.09;1702847;82;21039;-87
2022/07/10 09:00:35;;;;;;;2.15;1.15;;;;;;;16.83;69.56;96575.67;1708737;82;21038;-86
2022/07/10 09:03:01;;;;;;;3.90;1.30;;;;;;;17.13;70.19;96569.73;1706986;82;21031;-84
2022/07/10 09:05:27;;;;;;;2.25;0.85;;;;;;;17.17;70.36;96567.77;1701739;82;21354;-85
2022/07/10 09:07:53;;;;;;;4.20;1.10;;;;;;;17.18;69.47;96562.00;1707930;82;21015;-85
2022/07/10 09:10:22;;;;;;;1.95;1.00;;;;;;;17.21;70.42;96558.93;1710846;82;20975;-85
2022/07/10 09:13:01;;;;;;;3.17;0.93;;;;;;;17.20;69.58;96556.02;1677170;84;20953;-85
2022/07/10 09:15:32;;;;;;;3.42;1.20;;;;;;;17.11;69.20;96556.83;1678753;84;21435;-86
2022/07/10 09:18:00;;;;;;;2.45;1.10;;;;;;;16.94;68.39;96555.80;1656037;86;21117;-85
2022/07/10 09:20:44;;;;;;;4.83;1.32;;;;;;;16.99;68.46;96548.87;1713042;82;20955;-84
2022/07/10 09:23:21;;;;;;;3.05;1.17;;;;;;;17.29;68.52;96546.84;1705333;82;21397;-84
2022/07/10 09:25:47;;;;;;;2.45;1.00;;;;;;;17.51;66.22;96544.55;1692853;82;21013;-84
2022/07/10 09:28:15;;;;;;;3.77;1.00;;;;;;;17.73;66.75;96552.78;1696998;82;21436;-85
2022/07/10 09:30:41;;;;;;;2.58;1.00;;;;;;;17.85;62.49;96553.63;1706943;82;21062;-84
2022/07/10 09:33:31;;;;;;;3.12;1.10;;;;;;;18.07;65.37;96541.61;1695503;82;20943;-87
2022/07/10 09:36:06;;;;;;;4.22;1.20;;;;;;;18.03;63.30;96556.20;1693216;82;21405;-84
2022/07/10 09:38:51;;;;;;;5.87;1.32;;;;;;;17.77;62.18;96551.33;1699084;84;21377;-84
2022/07/10 09:41:29;;;;;;;3.20;1.17;;;;;;;17.59;63.60;96554.77;1696362;82;20995;-86
2022/07/10 09:44:01;;;;;;;1.98;0.88;;;;;;;17.30;63.58;96552.38;1715233;82;21056;-87
2022/07/10 09:46:35;;;;;;;3.40;1.10;;;;;;;17.08;64.49;96544.12;1695056;82;21034;-87
2022/07/10 09:49:13;;;;;;;1.57;0.95;;;;;;;16.99;64.29;96551.49;1702320;82;21052;-87
2022/07/10 09:51:45;;;;;;;4.03;1.50;;;;;;;17.19;65.64;96549.96;1707123;84;21034;-84
2022/07/10 09:54:11;;;;;;;2.27;0.90;;;;;;;17.36;65.59;96548.35;1691995;82;21413;-85
2022/07/10 09:56:47;;;;;;;3.75;1.20;;;;;;;17.40;66.05;96544.25;1681598;84;20976;-84
2022/07/10 09:59:15;;;;;;;3.17;1.30;;;;;;;17.33;65.23;96555.36;1711594;82;21010;-84
2022/07/10 10:01:48;;;;;;;4.00;1.02;;;;;;;17.26;66.42;96555.95;1712441;82;21019;-86
2022/07/10 10:04:15;;;;;;;2.67;0.80;;;;;;;17.16;65.67;96554.85;1700255;82;21428;-84
2022/07/10 10:06:41;;;;;;;4.62;1.10;;;;;;;17.01;63.40;96564.39;1688924;82;20971;-87
2022/07/10 10:09:33;;;;;;;4.42;1.20;;;;;;;16.80;64.58;96569.04;1684154;84;21472;-87
2022/07/10 10:12:05;;;;;;;1.80;0.80;;;;;;;16.66;64.11;96571.45;1699258;83;21034;-86
2022/07/10 10:14:30;;;;;;;2.83;1.15;;;;;;;16.57;66.51;96564.05;1697124;83;21339;-85
2022/07/10 10:16:57;;;;;;;4.78;1.20;;;;;;;16.71;66.00;96564.27;1680496;83;20980;-85
2022/07/10 10:22:10;;;;;;;4.28;1.10;;;;;;;16.85;64.32;96563.64;1692220;83;21055;-84
2022/07/10 10:24:35;;;;;;;4.55;0.90;;;;;;;17.02;65.00;96569.42;1701757;83;20955;-84
2022/07/10 10:27:01;;;;;;;2.40;1.02;;;;;;;17.15;65.94;96571.63;1687427;84;20987;-87
2022/07/10 10:29:28;;;;;;;2.62;0.90;;;;;;;17.16;64.19;96566.16;1692243;83;21405;-87
2022/07/10 10:31:54;;;;;;;3.10;1.00;;;;;;;17.25;63.06;96566.17;1696767;83;21027;-87
2022/07/10 10:34:41;;;;;;;3.77;1.10;;;;;;;17.24;65.34;96559.80;1698713;83;21426;-86
2022/07/10 10:37:26;;;;;;;2.58;1.00;;;;;;;17.43;64.72;96565.88;1680613;83;21021;-84
2022/07/10 10:39:56;;;;;;;2.83;0.82;;;;;;;17.44;62.16;96555.66;1653852;83;21027;-85
2022/07/10 10:42:41;;;;;;;4.62;0.90;;;;;;;17.58;61.65;96553.16;1697365;83;21050;-84
2022/07/10 10:45:32;;;;;;;1.87;1.00;;;;;;;17.67;62.25;96549.99;1693321;83;21086;-85
2022/07/10 10:48:12;;;;;;;2.30;0.80;;;;;;;17.96;61.38;96548.42;1699442;83;21035;-84
2022/07/10 10:50:53;;;;;;;3.05;1.00;;;;;;;17.90;60.91;96544.59;1702923;84;20971;-87
2022/07/10 10:53:28;;;;;;;3.35;0.80;;;;;;;17.75;59.79;96551.55;1692056;83;21020;-88
2022/07/10 10:56:07;;;;;;;3.27;0.88;;;;;;;17.50;62.37;96553.45;1663746;84;21358;-87
2022/07/10 10:58:45;;;;;;;3.22;0.90;;;;;;;17.28;62.34;96546.55;1699660;83;20974;-84
2022/07/10 11:01:26;;;;;;;2.30;0.90;;;;;;;17.27;62.29;96547.06;1690715;83;21073;-88
2022/07/10 11:04:14;;;;;;;1.70;1.07;;;;;;;17.29;62.99;96545.52;1699466;83;21361;-87
2022/07/10 11:06:49;;;;;;;4.05;1.10;;;;;;;17.43;63.25;96552.74;1686712;83;21030;-85
2022/07/10 11:09:30;;;;;;;5.15;1.45;;;;;;;17.45;61.85;96543.61;1710186;82;21063;-82
2022/07/10 11:12:09;;;;;;;3.25;1.12;;;;;;;17.43;62.83;96548.29;1696971;82;21025;-82
2022/07/10 11:14:37;;;;;;;1.77;0.80;;;;;;;17.35;62.18;96553.83;1714451;82;21002;-80
2022/07/10 11:17:04;;;;;;;2.80;1.30;;;;;;;17.26;59.71;96555.95;1714275;82;21066;-81
2022/07/10 11:19:31;;;;;;;3.15;0.80;;;;;;;17.27;61.28;96555.45;1709046;82;21005;-81
2022/07/10 11:22:12;;;;;;;3.10;1.70;;;;;;;17.23;60.59;96545.88;1709781;82;21002;-82
2022/07/10 11:25:14;;;;;;;3.02;1.00;;;;;;;17.25;62.20;96547.80;1712549;82;20998;-82
2022/07/10 11:28:08;;;;;;;3.47;0.90;;;;;;;17.28;60.36;96543.41;1706753;82;20983;-83
2022/07/10 11:30:53;;;;;;;3.52;1.00;;;;;;;17.36;60.62;96540.98;1712004;82;21027;-82
2022/07/10 11:33:20;;;;;;;2.52;0.80;;;;;;;17.28;60.02;96542.09;1689348;82;20994;-81
2022/07/10 11:35:50;;;;;;;4.45;1.10;;;;;;;17.14;60.64;96538.52;1699718;82;21071;-82
2022/07/10 11:38:25;;;;;;;2.42;0.82;;;;;;;17.00;60.59;96543.11;1714164;83;21125;-81
2022/07/10 11:40:54;;;;;;;4.92;1.52;;;;;;;16.77;60.58;96547.69;1697422;84;21019;-81
2022/07/10 11:43:23;;;;;;;5.58;1.30;;;;;;;16.58;60.97;96542.85;1712408;82;20977;-82
2022/07/10 11:45:48;;;;;;;3.67;0.90;;;;;;;16.42;61.30;96549.95;1715525;82;21412;-81
2022/07/10 11:48:19;;;;;;;2.70;0.80;;;;;;;16.32;60.67;96557.00;1667646;82;20947;-83